.
WxDataArchive / Data Records for 2012-06-29
2012-06-28 June 2012 2012-06-30

Data Records for Friday, 29 June 2012

Time	Temp	Chill	HIndex	Humid	Dewpt	 Wind 	HiWind	WindDir	Rain 	Barom 
-----	----	-----	------	-----	-----	------	------	-------	-----	----- 
00:00	88.6	88.6	96.5	60	72.9	0	1	292	0.00	29.722 
00:05	88.4	88.4	96.5	61	73.2	0	1	292	0.00	29.722 
00:10	88.2	88.2	96.1	61	73.0	0	1	292	0.00	29.722 
00:15	88.2	88.2	96.5	62	73.5	0	1	292	0.00	29.708 
00:20	88.0	88.0	96.1	62	73.3	0	2	292	0.00	29.708 
00:25	87.8	87.8	95.6	62	73.1	0	2	292	0.00	29.708 
00:30	87.6	87.6	95.2	62	72.9	1	2	292	0.00	29.727 
00:35	87.6	87.6	95.2	62	72.9	1	3	292	0.00	29.727 
00:40	87.6	87.6	95.2	62	72.9	1	4	292	0.00	29.727 
00:45	87.4	87.4	94.8	62	72.7	1	3	292	0.00	29.727 
00:50	87.0	87.0	93.9	62	72.4	1	3	315	0.00	29.727 
00:55	86.5	86.5	93.3	63	72.4	1	3	315	0.00	29.727 
01:00	86.3	86.3	92.8	63	72.2	1	3	292	0.00	29.734 
01:05	85.9	85.9	92.0	63	71.8	1	3	292	0.00	29.734 
01:10	85.7	85.7	91.2	62	71.1	1	3	292	0.00	29.734 
01:15	85.5	85.5	90.8	62	71.0	2	5	315	0.00	29.744 
01:20	85.3	85.3	90.5	62	70.8	1	3	315	0.00	29.744 
01:25	85.1	85.1	89.8	61	70.1	1	3	315	0.00	29.744 
01:30	84.9	84.9	89.1	60	69.4	1	3	315	0.00	29.747 
01:35	84.9	84.9	88.8	59	68.9	1	4	315	0.00	29.747 
01:40	84.9	84.9	89.1	60	69.4	1	5	270	0.00	29.747 
01:45	84.7	84.7	88.7	60	69.2	0	2	270	0.00	29.762 
01:50	84.5	84.5	88.1	59	68.6	1	4	270	0.00	29.762 
01:55	84.3	84.3	87.8	59	68.4	0	2	270	0.00	29.762 
02:00	84.1	84.1	87.7	60	68.7	0	1	270	0.00	29.776 
02:05	84.0	84.0	87.5	60	68.6	1	3	270	0.00	29.776 
02:10	84.0	84.0	87.5	60	68.6	1	3	270	0.00	29.776 
02:15	83.8	83.8	87.2	60	68.4	0	1	270	0.00	29.775 
02:20	83.6	83.6	87.1	61	68.7	0	2	270	0.00	29.775 
02:25	83.4	83.4	86.8	61	68.5	0	2	270	0.00	29.775 
02:30	83.2	83.2	86.5	61	68.3	0	1	270	0.00	29.778 
02:35	83.0	83.0	86.4	62	68.6	0	1	270	0.00	29.778 
02:40	83.0	83.0	86.4	62	68.6	0	1	270	0.00	29.778 
02:45	82.8	82.8	86.1	62	68.4	0	0	---	0.00	29.778 
02:50	82.6	82.6	85.9	63	68.7	0	2	270	0.00	29.778 
02:55	82.4	82.4	85.6	63	68.5	0	1	270	0.00	29.778 
03:00	82.2	82.2	85.3	63	68.3	0	1	270	0.00	29.781 
03:05	82.0	82.0	85.2	64	68.6	0	1	270	0.00	29.781 
03:10	81.8	81.8	84.9	64	68.4	0	1	270	0.00	29.781 
03:15	81.8	81.8	84.9	64	68.4	0	0	---	0.00	29.782 
03:20	81.6	81.6	84.7	65	68.7	0	0	---	0.00	29.782 
03:25	81.2	81.2	84.1	65	68.3	0	0	---	0.00	29.782 
03:30	81.1	81.1	84.1	66	68.6	0	0	---	0.00	29.785 
03:35	80.7	80.7	83.7	67	68.7	0	0	---	0.00	29.785 
03:40	80.5	80.5	83.5	68	68.9	0	0	---	0.00	29.785 
03:45	79.9	79.9	82.6	68	68.4	0	0	---	0.00	29.781 
03:50	79.8	79.8	82.4	68	68.3	0	0	---	0.00	29.781 
03:55	79.4	79.4	81.9	69	68.3	0	0	---	0.00	29.781 
04:00	79.2	79.2	81.7	70	68.5	0	0	---	0.00	29.784 
04:05	79.0	79.0	81.4	70	68.4	0	0	---	0.00	29.784 
04:10	78.6	78.6	80.9	71	68.4	0	0	---	0.00	29.784 
04:15	78.5	78.5	80.8	72	68.7	0	0	---	0.00	29.788 
04:20	78.3	78.3	80.6	73	68.9	0	0	---	0.00	29.788 
04:25	78.1	78.1	80.3	73	68.7	0	0	---	0.00	29.788 
04:30	77.9	77.9	80.0	74	68.9	0	0	---	0.00	29.791 
04:35	77.7	77.7	79.7	75	69.1	0	0	---	0.00	29.791 
04:40	77.4	77.4	79.3	75	68.8	0	0	---	0.00	29.791 
04:45	77.2	77.2	79.0	76	69.0	0	0	---	0.00	29.794 
04:50	77.0	77.0	78.7	77	69.2	0	0	---	0.00	29.794 
04:55	76.8	76.8	78.4	77	69.0	0	0	---	0.00	29.794 
05:00	76.7	76.7	78.2	77	68.9	0	0	---	0.00	29.796 
05:05	76.7	76.7	78.2	78	69.3	0	0	---	0.00	29.796 
05:10	76.5	76.5	77.9	78	69.1	0	0	---	0.00	29.796 
05:15	76.5	76.5	77.8	79	69.5	0	0	---	0.00	29.801 
05:20	76.5	76.5	77.8	79	69.5	0	0	---	0.00	29.801 
05:25	76.3	76.3	77.5	79	69.3	0	0	---	0.00	29.801 
05:30	76.3	76.3	77.5	80	69.7	0	0	---	0.00	29.806 
05:35	76.3	76.3	77.5	80	69.7	0	0	---	0.00	29.806 
05:40	76.3	76.3	77.5	80	69.7	0	0	---	0.00	29.806 
05:45	76.3	76.3	77.5	80	69.7	0	0	---	0.00	29.810 
05:50	76.3	76.3	77.5	80	69.7	0	0	---	0.00	29.810 
05:55	76.1	76.1	77.1	80	69.5	0	0	---	0.00	29.810 
06:00	76.0	76.0	77.0	80	69.4	0	1	270	0.00	29.808 
06:05	76.0	76.0	76.9	81	69.7	0	0	---	0.00	29.808 
06:10	75.8	75.8	76.6	81	69.5	0	0	---	0.00	29.808 
06:15	75.8	75.8	76.6	81	69.5	0	0	---	0.00	29.814 
06:20	75.8	75.8	76.6	81	69.5	0	0	---	0.00	29.814 
06:25	75.8	75.8	76.5	82	69.9	0	0	---	0.00	29.814 
06:30	75.8	75.8	76.5	82	69.9	0	0	---	0.00	29.814 
06:35	75.8	75.8	76.5	82	69.9	0	0	---	0.00	29.814 
06:40	75.8	75.8	76.5	82	69.9	0	0	---	0.00	29.814 
06:45	75.8	75.8	76.5	82	69.9	0	0	---	0.00	29.815 
06:50	75.8	75.8	76.5	82	69.9	0	0	---	0.00	29.815 
06:55	75.8	75.8	76.5	82	69.9	0	0	---	0.00	29.815 
07:00	75.8	75.8	76.5	82	69.9	0	0	---	0.00	29.823 
07:05	76.0	76.0	76.8	82	70.1	0	0	---	0.00	29.823 
07:10	76.0	76.0	76.8	82	70.1	0	0	---	0.00	29.823 
07:15	76.3	76.3	77.3	82	70.4	0	0	---	0.00	29.827 
07:20	76.5	76.5	77.7	82	70.6	0	0	---	0.00	29.827 
07:25	76.7	76.7	78.0	81	70.4	0	0	---	0.00	29.827 
07:30	77.2	77.2	78.9	80	70.5	0	0	---	0.00	29.827 
07:35	77.7	77.7	79.7	78	70.3	0	0	---	0.00	29.827 
07:40	78.1	78.1	80.4	77	70.3	0	1	270	0.00	29.827 
07:45	78.3	78.3	80.7	77	70.5	0	1	270	0.00	29.834 
07:50	78.5	78.5	81.0	76	70.3	0	2	270	0.00	29.834 
07:55	78.8	78.8	81.5	76	70.6	0	2	270	0.00	29.834 
08:00	79.0	79.0	81.8	75	70.4	0	1	270	0.00	29.839 
08:05	79.0	79.0	81.8	75	70.4	0	1	270	0.00	29.839 
08:10	79.2	79.2	82.2	76	71.0	0	1	270	0.00	29.839 
08:15	79.2	79.2	82.2	76	71.0	0	0	---	0.00	29.850 
08:20	79.2	79.2	82.1	75	70.6	0	1	270	0.00	29.850 
08:25	79.4	79.4	82.5	75	70.8	0	1	270	0.00	29.850 
08:30	79.4	79.4	82.6	76	71.2	0	0	---	0.00	29.850 
08:35	79.6	79.6	83.0	76	71.3	0	1	270	0.00	29.850 
08:40	79.9	79.9	83.4	75	71.2	0	2	270	0.00	29.850 
08:45	80.1	80.1	83.6	74	71.0	0	2	270	0.00	29.848 
08:50	80.5	80.5	84.2	73	71.0	0	2	270	0.00	29.848 
08:55	81.1	81.1	85.3	73	71.6	0	2	270	0.00	29.848 
09:00	81.4	81.4	85.9	73	71.9	0	2	270	0.00	29.846 
09:05	81.8	81.8	86.1	70	71.0	1	2	270	0.00	29.846 
09:10	82.0	82.0	86.7	71	71.6	1	3	270	0.00	29.846 
09:15	82.0	82.0	86.7	71	71.6	0	3	270	0.00	29.844 
09:20	82.2	82.2	86.8	70	71.4	2	3	45	0.00	29.844 
09:25	82.4	82.4	87.2	70	71.6	1	3	45	0.00	29.844 
09:30	83.0	83.0	88.1	69	71.8	0	2	45	0.00	29.835 
09:35	83.4	83.4	88.6	68	71.7	0	2	45	0.00	29.835 
09:40	83.8	83.8	89.4	68	72.1	0	2	22	0.00	29.835 
09:45	84.1	84.1	89.7	67	71.9	1	4	22	0.00	29.833 
09:50	84.1	84.1	89.4	66	71.5	1	3	90	0.00	29.833 
09:55	84.3	84.3	89.8	66	71.7	2	4	90	0.00	29.833 
10:00	84.7	84.7	90.3	65	71.6	1	3	112	0.00	29.835 
10:05	84.9	84.9	90.0	63	70.9	1	4	135	0.00	29.835 
10:10	84.9	84.9	90.4	64	71.3	1	4	112	0.00	29.835 
10:15	84.9	84.9	90.4	64	71.3	0	2	112	0.00	29.829 
10:20	85.3	85.3	91.2	64	71.7	2	5	90	0.00	29.829 
10:25	85.5	85.5	90.8	62	71.0	0	2	90	0.00	29.829 
10:30	85.7	85.7	91.2	62	71.1	1	3	90	0.00	29.828 
10:35	85.3	85.3	90.5	62	70.8	0	1	90	0.00	29.828 
10:40	85.5	85.5	90.5	61	70.5	1	2	90	0.00	29.828 
10:45	86.1	86.1	91.7	61	71.0	0	1	90	0.00	29.827 
10:50	86.5	86.5	91.3	58	69.9	1	2	90	0.00	29.827 
10:55	86.7	86.7	91.7	58	70.1	0	2	90	0.00	29.827 
11:00	87.0	87.0	91.9	57	69.9	1	2	90	0.00	29.819 
11:05	87.4	87.4	92.6	57	70.3	0	2	90	0.00	29.819 
11:10	87.4	87.4	92.2	56	69.7	0	2	90	0.00	29.819 
11:15	87.4	87.4	92.2	56	69.7	0	1	90	0.00	29.816 
11:20	87.6	87.6	92.2	55	69.4	0	2	90	0.00	29.816 
11:25	88.4	88.4	93.3	54	69.6	0	1	90	0.00	29.816 
11:30	89.3	89.3	95.1	54	70.4	1	2	90	0.00	29.800 
11:35	89.9	89.9	96.3	54	71.0	0	3	90	0.00	29.800 
11:40	90.1	90.1	96.7	54	71.2	1	3	68	0.00	29.800 
11:45	89.9	89.9	96.3	54	71.0	1	2	68	0.00	29.796 
11:50	89.9	89.9	95.8	53	70.4	1	3	68	0.00	29.796 
11:55	89.7	89.7	95.9	54	70.8	1	3	68	0.00	29.796 
12:00	89.5	89.5	95.9	55	71.2	1	2	68	0.00	29.788 
12:05	89.9	89.9	96.3	54	71.0	1	5	68	0.00	29.788 
12:10	90.5	90.5	97.0	53	71.0	1	4	90	0.00	29.788 
12:15	90.5	90.5	97.5	54	71.5	2	5	112	0.00	29.802 
12:20	90.5	90.5	97.0	53	71.0	1	3	112	0.00	29.802 
12:25	90.3	90.3	97.1	54	71.4	0	1	112	0.00	29.802 
12:30	90.1	90.1	96.2	53	70.6	1	4	112	0.00	29.812 
12:35	89.9	89.9	96.3	54	71.0	1	3	112	0.00	29.812 
12:40	89.7	89.7	95.9	54	70.8	1	3	90	0.00	29.812 
12:45	90.1	90.1	96.2	53	70.6	1	3	90	0.00	29.809 
12:50	90.1	90.1	96.7	54	71.2	1	2	90	0.00	29.809 
12:55	89.9	89.9	95.8	53	70.4	1	3	90	0.00	29.809 
13:00	89.5	89.5	95.5	54	70.6	1	3	90	0.00	29.817 
13:05	88.8	88.8	94.5	55	70.5	0	2	90	0.00	29.817 
13:10	88.8	88.8	95.0	56	71.0	0	2	90	0.00	29.817 
13:15	88.6	88.6	95.0	57	71.4	1	3	90	0.00	29.819 
13:20	88.6	88.6	95.5	58	71.9	1	3	90	0.00	29.819 
13:25	89.0	89.0	95.4	56	71.2	1	3	90	0.00	29.819 
13:30	89.0	89.0	94.5	54	70.2	1	3	90	0.00	29.818 
13:35	89.0	89.0	94.5	54	70.2	2	3	270	0.00	29.818 
13:40	89.3	89.3	95.1	54	70.4	0	2	270	0.00	29.818 
13:45	89.5	89.5	95.5	54	70.6	2	4	270	0.00	29.810 
13:50	90.1	90.1	96.7	54	71.2	1	4	270	0.00	29.810 
13:55	91.0	91.0	97.0	51	70.3	1	4	338	0.00	29.810 
14:00	91.8	91.8	98.1	50	70.5	1	3	338	0.00	29.801 
14:05	92.5	92.5	99.0	49	70.5	1	4	270	0.00	29.801 
14:10	92.1	92.1	98.2	49	70.1	1	4	292	0.00	29.801 
14:15	91.8	91.8	97.6	49	69.9	2	5	270	0.00	29.805 
14:20	91.6	91.6	97.7	50	70.3	1	2	270	0.00	29.805 
14:25	91.4	91.4	97.3	50	70.1	1	4	270	0.00	29.805 
14:30	91.2	91.2	96.9	50	69.9	2	4	270	0.00	29.818 
14:35	91.0	91.0	96.5	50	69.7	3	5	270	0.00	29.818 
14:40	90.5	90.5	95.5	50	69.3	2	5	270	0.00	29.818 
14:45	90.3	90.3	95.6	51	69.7	2	5	315	0.00	29.804 
14:50	90.1	90.1	95.2	51	69.5	2	4	315	0.00	29.804 
14:55	89.9	89.9	95.3	52	69.9	2	5	315	0.00	29.804 
15:00	89.7	89.7	94.9	52	69.7	3	10	270	0.00	29.808 
15:05	81.6	81.6	81.1	40	54.9	14	25	270	0.00	29.808 
15:10	72.0	72.0	72.0	66	60.0	15	23	270	0.00	29.808 
15:15	66.9	66.9	66.9	79	60.2	13	19	270	0.09	29.976 
15:20	64.5	64.5	64.5	85	59.9	9	22	315	0.08	29.976 
15:25	63.1	63.1	63.1	86	58.8	8	21	315	0.02	29.976 
15:30	61.6	61.6	61.6	85	57.0	4	13	315	0.01	29.939 
15:35	61.2	61.2	61.2	86	57.0	3	11	0	0.01	29.939 
15:40	61.2	61.2	61.2	85	56.6	2	6	0	0.00	29.939 
15:45	61.5	61.5	61.5	83	56.3	2	8	338	0.01	29.845 
15:50	62.6	62.6	62.6	81	56.7	2	9	315	0.00	29.845 
15:55	63.9	63.9	63.9	80	57.6	2	6	338	0.00	29.845 
16:00	65.3	65.3	65.3	79	58.6	1	5	338	0.00	29.758 
16:05	66.8	66.8	66.8	75	58.6	2	10	338	0.00	29.758 
16:10	67.8	67.8	67.8	73	58.8	2	6	112	0.00	29.758 
16:15	68.4	68.4	68.4	73	59.4	0	3	68	0.00	29.732 
16:20	68.8	68.8	68.8	73	59.8	0	1	68	0.00	29.732 
16:25	69.1	69.1	69.1	73	60.1	1	3	68	0.00	29.732 
16:30	69.3	69.3	69.3	73	60.3	0	2	68	0.00	29.747 
16:35	69.4	69.4	69.4	72	60.0	0	3	68	0.00	29.747 
16:40	69.4	69.4	69.4	73	60.4	0	1	68	0.00	29.747 
16:45	69.3	69.3	69.3	74	60.6	0	0	---	0.00	29.749 
16:50	69.1	69.1	69.1	75	60.8	0	0	---	0.00	29.749 
16:55	68.9	68.9	68.9	75	60.6	0	3	68	0.01	29.749 
17:00	69.1	69.1	69.1	74	60.5	0	2	68	0.00	29.761 
17:05	69.4	69.4	69.4	74	60.7	0	2	68	0.00	29.761 
17:10	69.8	69.8	69.8	73	60.7	1	2	68	0.00	29.761 
17:15	70.1	70.1	70.1	71	60.2	1	2	68	0.00	29.791 
17:20	70.4	70.4	70.4	72	60.9	0	2	68	0.00	29.791 
17:25	70.6	70.6	70.6	72	61.1	0	2	68	0.00	29.791 
17:30	70.6	70.6	70.6	72	61.1	1	3	292	0.00	29.808 
17:35	70.8	70.8	70.8	72	61.3	1	2	292	0.00	29.808 
17:40	70.9	70.9	70.9	71	61.0	1	3	292	0.00	29.808 
17:45	71.1	71.1	71.1	71	61.2	1	3	292	0.00	29.812 
17:50	71.3	71.3	71.3	70	61.0	1	3	292	0.00	29.812 
17:55	71.5	71.5	71.5	71	61.6	0	2	292	0.00	29.812 
18:00	71.6	71.6	71.6	70	61.3	0	2	292	0.00	29.808 
18:05	71.8	71.8	71.8	71	61.9	0	2	292	0.00	29.808 
18:10	71.8	71.8	71.8	70	61.5	1	3	292	0.00	29.808 
18:15	72.0	72.0	72.0	69	61.3	1	3	292	0.00	29.804 
18:20	72.3	72.3	72.3	69	61.5	0	1	292	0.00	29.804 
18:25	72.7	72.7	72.7	69	61.9	0	2	292	0.00	29.804 
18:30	73.0	73.0	73.0	68	61.8	0	1	292	0.00	29.806 
18:35	73.2	73.2	73.2	67	61.6	0	1	292	0.00	29.806 
18:40	73.5	73.5	73.5	66	61.4	1	2	292	0.00	29.806 
18:45	73.5	73.5	73.5	65	61.0	0	2	292	0.00	29.793 
18:50	73.5	73.5	73.5	66	61.4	0	2	292	0.00	29.793 
18:55	73.5	73.5	73.5	66	61.4	0	1	292	0.00	29.793 
19:00	73.5	73.5	73.5	66	61.4	0	2	292	0.00	29.800 
19:05	73.7	73.7	73.7	66	61.6	0	0	---	0.00	29.800 
19:10	73.7	73.7	73.7	65	61.2	0	3	292	0.00	29.800 
19:15	73.7	73.7	73.7	66	61.6	0	2	292	0.00	29.803 
19:20	73.7	73.7	73.7	65	61.2	0	2	292	0.00	29.803 
19:25	73.7	73.7	73.7	65	61.2	0	1	292	0.00	29.803 
19:30	73.7	73.7	73.7	65	61.2	0	2	292	0.00	29.799 
19:35	73.7	73.7	73.7	65	61.2	0	2	292	0.00	29.799 
19:40	73.7	73.7	73.7	65	61.2	0	2	292	0.00	29.799 
19:45	73.7	73.7	73.7	66	61.6	0	2	292	0.00	29.799 
19:50	73.7	73.7	73.7	66	61.6	0	1	292	0.00	29.799 
19:55	73.7	73.7	73.7	66	61.6	0	2	292	0.00	29.799 
20:00	73.5	73.5	73.5	66	61.4	0	1	292	0.00	29.801 
20:05	73.5	73.5	73.5	67	61.9	0	1	292	0.00	29.801 
20:10	73.5	73.5	73.5	66	61.4	0	0	---	0.00	29.801 
20:15	73.5	73.5	73.5	67	61.9	0	0	---	0.00	29.798 
20:20	73.5	73.5	73.5	68	62.3	0	0	---	0.00	29.798 
20:25	73.5	73.5	73.5	67	61.9	0	1	292	0.00	29.798 
20:30	73.3	73.3	73.3	67	61.7	0	0	---	0.00	29.801 
20:35	73.2	73.2	73.2	68	62.0	0	0	---	0.00	29.801 
20:40	73.0	73.0	73.0	68	61.8	0	1	292	0.00	29.801 
20:45	72.8	72.8	72.8	69	62.0	0	0	---	0.00	29.804 
20:50	72.5	72.5	72.5	69	61.7	0	1	292	0.00	29.804 
20:55	72.3	72.3	72.3	70	62.0	0	0	---	0.00	29.804 
21:00	72.1	72.1	72.1	71	62.2	0	0	---	0.00	29.808 
21:05	71.8	71.8	71.8	72	62.3	0	0	---	0.00	29.808 
21:10	71.6	71.6	71.6	72	62.1	0	0	---	0.00	29.808 
21:15	71.3	71.3	71.3	73	62.2	0	0	---	0.00	29.808 
21:20	70.9	70.9	70.9	74	62.2	0	0	---	0.00	29.808 
21:25	70.6	70.6	70.6	75	62.3	0	0	---	0.00	29.808 
21:30	70.1	70.1	70.1	77	62.5	0	0	---	0.00	29.804 
21:35	69.9	69.9	69.9	77	62.3	0	0	---	0.00	29.804 
21:40	69.6	69.6	69.6	78	62.4	0	0	---	0.00	29.804 
21:45	69.4	69.4	69.4	79	62.6	0	0	---	0.00	29.816 
21:50	69.1	69.1	69.1	80	62.7	0	0	---	0.00	29.816 
21:55	68.9	68.9	68.9	80	62.5	0	0	---	0.00	29.816 
22:00	68.6	68.6	68.6	81	62.5	0	0	---	0.00	29.810 
22:05	68.4	68.4	68.4	81	62.3	0	0	---	0.00	29.810 
22:10	68.3	68.3	68.3	82	62.6	0	0	---	0.00	29.810 
22:15	68.1	68.1	68.1	82	62.4	0	0	---	0.00	29.810 
22:20	67.8	67.8	67.8	83	62.4	0	0	---	0.00	29.810 
22:25	67.6	67.6	67.6	84	62.6	0	0	---	0.00	29.810 
22:30	67.4	67.4	67.4	84	62.4	0	0	---	0.00	29.816 
22:35	67.1	67.1	67.1	84	62.1	0	0	---	0.00	29.816 
22:40	66.9	66.9	66.9	85	62.2	0	0	---	0.00	29.816 
22:45	66.8	66.8	66.8	85	62.1	0	0	---	0.00	29.817 
22:50	66.6	66.6	66.6	86	62.3	0	0	---	0.00	29.817 
22:55	66.6	66.6	66.6	87	62.6	0	0	---	0.00	29.817 
23:00	66.4	66.4	66.4	87	62.4	0	0	---	0.00	29.820 
23:05	66.4	66.4	66.4	87	62.4	0	0	---	0.00	29.820 
23:10	66.3	66.3	66.3	88	62.6	0	0	---	0.00	29.820 
23:15	66.3	66.3	66.3	88	62.6	0	0	---	0.00	29.826 
23:20	66.1	66.1	66.1	88	62.4	0	0	---	0.00	29.826 
23:25	66.1	66.1	66.1	88	62.4	0	0	---	0.00	29.826 
23:30	66.0	66.0	66.0	89	62.7	0	0	---	0.00	29.827 
23:35	66.0	66.0	66.0	89	62.7	0	0	---	0.00	29.827 
23:40	65.8	65.8	65.8	89	62.5	0	0	---	0.00	29.827 
23:45	65.6	65.6	65.6	89	62.3	0	0	---	0.00	29.821 
23:50	65.6	65.6	65.6	89	62.3	0	0	---	0.00	29.821 
23:55	65.5	65.5	65.5	90	62.5	0	0	---	0.00	29.821 

CoCoRaHS
IN-AL-39
A2 Web Hosting
Creative Commons License
GoDaddy
search engine by freefind advanced

loaded 2018-11-16 00:08:49 • last modified 2010-11-18 10:43:29
Privacy PolicyDisclaimer
• wx.awcolley.com is powered by PmWiki v.2002016 •
• all content (unless otherwise noted) © 2018 A W Colley